createdAt,value
2023-02-24T00:11:24.120Z,41.35
2023-02-24T00:26:27.155Z,38.53
2023-02-24T00:41:31.656Z,42.65
2023-02-24T00:56:34.954Z,43.67
2023-02-24T01:11:55.688Z,48.65
2023-02-24T01:26:57.721Z,50.08
2023-02-24T01:42:02.575Z,48.17
2023-02-24T01:57:06.177Z,52.55
2023-02-24T02:12:09.752Z,49.88
2023-02-24T02:27:22.767Z,50.60
2023-02-24T02:42:30.723Z,56.03
2023-02-24T02:57:34.259Z,58.78
2023-02-24T03:12:39.520Z,62.65
2023-02-24T03:28:04.078Z,61.80
2023-02-24T03:43:21.851Z,76.63
2023-02-24T03:58:47.411Z,65.57
2023-02-24T04:14:08.910Z,56.40
2023-02-24T04:29:17.864Z,65.18
2023-02-24T04:44:21.963Z,86.25
2023-02-24T04:59:25.206Z,86.32
2023-02-24T05:14:29.183Z,83.97
2023-02-24T05:29:34.917Z,103.55
2023-02-24T05:44:37.388Z,75.32
2023-02-24T05:59:41.269Z,77.57
2023-02-24T06:14:45.291Z,82.13
2023-02-24T06:29:52.391Z,87.78
2023-02-24T06:44:55.077Z,95.47
2023-02-24T06:59:57.129Z,125.72
2023-02-24T07:14:59.261Z,93.93
2023-02-24T07:30:06.370Z,101.47
2023-02-24T07:45:09.315Z,100.78
2023-02-24T08:00:19.816Z,80.85
2023-02-24T08:15:34.489Z,83.47
2023-02-24T08:30:46.098Z,88.05
2023-02-24T08:46:26.871Z,69.10
2023-02-24T09:01:35.111Z,52.57
2023-02-24T09:16:52.572Z,49.47
2023-02-24T09:32:04.806Z,50.25
2023-02-24T09:47:31.556Z,46.20
2023-02-24T10:03:19.953Z,44.65
2023-02-24T10:18:45.337Z,38.80
2023-02-24T10:33:48.937Z,35.35
2023-02-24T10:49:00.779Z,36.35
2023-02-24T11:04:22.972Z,36.03
2023-02-24T11:19:29.981Z,38.88
2023-02-24T11:34:59.831Z,34.00
2023-02-24T11:50:26.496Z,38.53
2023-02-24T12:05:37.376Z,29.13
2023-02-24T12:20:41.098Z,24.85
2023-02-24T12:35:51.323Z,27.63
2023-02-24T12:52:19.752Z,32.67
2023-02-24T13:07:33.561Z,25.85
2023-02-24T13:22:42.482Z,28.13
2023-02-24T13:37:47.186Z,24.70
2023-02-24T13:53:17.001Z,18.50
2023-02-24T14:08:30.170Z,12.45
2023-02-24T14:23:34.803Z,12.35
2023-02-24T14:38:40.040Z,13.27
2023-02-24T14:53:55.510Z,12.15
2023-02-24T15:09:01.709Z,15.60
2023-02-24T15:24:19.004Z,16.20
2023-02-24T15:39:27.835Z,15.82
2023-02-24T15:54:34.614Z,14.88
2023-02-24T16:09:40.362Z,19.73
2023-02-24T16:24:44.117Z,17.63
2023-02-24T16:39:47.939Z,16.23
2023-02-24T16:54:50.213Z,14.75
2023-02-24T17:09:52.276Z,13.63
2023-02-24T17:24:54.535Z,15.27
2023-02-24T17:39:56.639Z,25.17
2023-02-24T17:55:00.050Z,15.35
2023-02-24T18:10:03.271Z,16.10
2023-02-24T18:25:07.001Z,22.20
2023-02-24T18:40:10.586Z,21.33
2023-02-24T18:55:13.948Z,18.88
2023-02-24T19:10:17.069Z,19.50
2023-02-24T19:40:49.535Z,29.30
2023-02-24T19:55:52.553Z,36.60
2023-02-24T20:11:04.148Z,43.75
2023-02-24T20:26:08.682Z,33.60
2023-02-24T20:41:11.785Z,35.22
2023-02-24T20:56:20.299Z,36.42
2023-02-24T21:11:23.994Z,29.80
2023-02-24T21:26:29.891Z,32.10
2023-02-24T21:41:32.086Z,35.10
2023-02-24T21:56:34.266Z,36.53
2023-02-24T22:11:39.900Z,36.50
2023-02-24T22:26:42.898Z,27.60
2023-02-24T22:41:47.034Z,30.05
2023-02-24T22:56:49.118Z,36.03
2023-02-24T23:11:51.170Z,40.50
2023-02-24T23:26:57.792Z,42.67
2023-02-24T23:41:59.786Z,38.75
2023-02-24T23:57:01.714Z,40.70
